createdAt,value
2023-03-21T00:01:25.582Z,6.10
2023-03-21T00:05:30.057Z,6.80
2023-03-21T00:09:32.774Z,5.75
2023-03-21T00:13:38.485Z,6.15
2023-03-21T00:17:41.558Z,6.82
2023-03-21T00:21:59.607Z,7.65
2023-03-21T00:26:10.165Z,8.65
2023-03-21T00:30:14.004Z,7.30
2023-03-21T00:34:22.490Z,8.15
2023-03-21T00:38:36.265Z,7.28
2023-03-21T00:42:39.104Z,8.55
2023-03-21T00:46:51.681Z,7.30
2023-03-21T00:51:00.554Z,6.38
2023-03-21T00:55:04.940Z,8.05
2023-03-21T00:59:07.614Z,6.75
2023-03-21T01:03:23.713Z,9.65
2023-03-21T01:07:27.692Z,6.80
2023-03-21T01:11:32.051Z,7.10
2023-03-21T01:15:34.941Z,8.65
2023-03-21T01:19:51.208Z,8.25
2023-03-21T01:23:54.630Z,7.32
2023-03-21T01:27:58.636Z,7.75
2023-03-21T01:32:01.445Z,7.32
2023-03-21T01:36:12.804Z,7.65
2023-03-21T01:40:18.182Z,7.40
2023-03-21T01:44:22.475Z,7.25
2023-03-21T01:48:25.521Z,7.00
2023-03-21T01:52:37.135Z,7.30
2023-03-21T01:56:42.063Z,6.55
2023-03-21T02:00:46.462Z,7.05
2023-03-21T02:04:51.143Z,7.43
2023-03-21T02:08:54.435Z,8.20
2023-03-21T02:12:58.494Z,7.28
2023-03-21T02:21:48.904Z,8.90
2023-03-21T02:26:17.554Z,7.07
2023-03-21T02:30:51.619Z,7.65
2023-03-21T02:35:29.289Z,7.22
2023-03-21T02:39:41.575Z,7.13
2023-03-21T02:43:46.511Z,6.97
2023-03-21T02:47:52.643Z,6.43
2023-03-21T02:52:00.229Z,6.53
2023-03-21T02:56:10.787Z,6.47
2023-03-21T03:00:17.838Z,7.40
2023-03-21T03:04:22.068Z,5.72
2023-03-21T03:12:51.591Z,6.22
2023-03-21T03:17:03.952Z,6.53
2023-03-21T03:21:12.193Z,7.13
2023-03-21T03:25:24.958Z,7.22
2023-03-21T03:29:35.723Z,6.57
2023-03-21T03:33:41.327Z,6.40
2023-03-21T03:37:47.528Z,5.78
2023-03-21T03:42:12.198Z,6.90
2023-03-21T03:46:20.861Z,6.72
2023-03-21T03:50:28.005Z,6.97
2023-03-21T03:54:33.341Z,7.00
2023-03-21T03:58:45.190Z,7.80
2023-03-21T04:02:49.967Z,6.53
2023-03-21T04:06:53.714Z,6.75
2023-03-21T04:10:56.596Z,7.55
2023-03-21T04:15:08.177Z,7.78
2023-03-21T04:19:15.888Z,7.32
2023-03-21T04:23:20.201Z,8.30
2023-03-21T04:27:22.893Z,6.55
2023-03-21T04:31:27.273Z,13.07
2023-03-21T04:35:31.577Z,8.65
2023-03-21T04:43:37.340Z,6.93
2023-03-21T04:47:40.778Z,6.55
2023-03-21T04:51:45.578Z,8.55
2023-03-21T04:55:51.876Z,6.22
2023-03-21T04:59:56.136Z,8.07
2023-03-21T05:03:59.418Z,6.70
2023-03-21T05:08:03.514Z,5.95
2023-03-21T05:12:06.852Z,5.85
2023-03-21T05:16:10.389Z,6.53
2023-03-21T05:20:17.356Z,6.65
2023-03-21T05:24:23.073Z,7.18
2023-03-21T05:28:31.840Z,7.70
2023-03-21T05:32:34.566Z,9.40
2023-03-21T05:36:37.283Z,6.57
2023-03-21T05:40:41.312Z,7.55
2023-03-21T05:44:44.244Z,10.05
2023-03-21T05:48:46.920Z,7.55
2023-03-21T05:52:49.713Z,7.38
2023-03-21T05:56:53.758Z,9.95
2023-03-21T06:00:56.434Z,8.45
2023-03-21T06:04:59.161Z,8.32
2023-03-21T06:09:02.189Z,15.40
2023-03-21T06:13:06.497Z,13.13
2023-03-21T06:17:09.185Z,21.70
2023-03-21T06:21:11.849Z,12.43
2023-03-21T06:25:14.600Z,15.75
2023-03-21T06:29:18.915Z,23.85
2023-03-21T06:33:21.738Z,34.40
2023-03-21T06:37:25.816Z,34.47
2023-03-21T06:45:32.301Z,113.70
2023-03-21T06:53:37.549Z,135.02
2023-03-21T06:57:40.259Z,79.32
2023-03-21T07:01:44.293Z,66.72
2023-03-21T07:09:49.636Z,140.25
2023-03-21T07:13:53.617Z,122.93
2023-03-21T07:22:01.459Z,324.52
2023-03-21T07:30:08.282Z,240.85
2023-03-21T07:34:12.330Z,148.45
2023-03-21T07:38:16.874Z,147.05
2023-03-21T07:42:20.356Z,77.97
2023-03-21T07:46:23.085Z,155.48
2023-03-21T07:50:27.210Z,297.27
2023-03-21T07:54:30.347Z,274.30
2023-03-21T07:58:34.287Z,362.63
2023-03-21T08:02:37.124Z,107.07
2023-03-21T08:06:41.263Z,183.85
2023-03-21T08:10:44.584Z,158.40
2023-03-21T08:14:47.298Z,336.38
2023-03-21T08:18:50.363Z,271.08
2023-03-21T08:22:54.393Z,263.13
2023-03-21T08:26:58.373Z,396.27
2023-03-21T08:31:01.449Z,332.60
2023-03-21T08:35:04.835Z,418.40
2023-03-21T08:39:08.831Z,180.00
2023-03-21T08:43:13.686Z,356.08
2023-03-21T08:47:17.411Z,327.50
2023-03-21T08:51:20.628Z,121.35
2023-03-21T08:55:24.704Z,21.15
2023-03-21T08:59:27.650Z,252.25
2023-03-21T09:03:30.374Z,268.70
2023-03-21T09:07:34.717Z,294.58
2023-03-21T09:11:38.738Z,21.83
2023-03-21T09:15:41.520Z,81.25
2023-03-21T09:19:44.536Z,29.90
2023-03-21T09:23:48.642Z,217.82
2023-03-21T09:27:53.735Z,36.13
2023-03-21T09:31:57.777Z,103.65
2023-03-21T09:36:01.262Z,112.43
2023-03-21T09:40:08.749Z,83.85
2023-03-21T09:44:22.859Z,163.55
2023-03-21T09:48:37.615Z,129.73
2023-03-21T09:52:45.635Z,246.13
2023-03-21T09:56:48.504Z,70.68
2023-03-21T10:00:56.696Z,334.95
2023-03-21T10:05:00.278Z,365.70
2023-03-21T10:09:06.633Z,114.57
2023-03-21T10:13:15.654Z,277.88
2023-03-21T10:17:26.321Z,270.50
2023-03-21T10:22:00.279Z,489.48
2023-03-21T10:25:55.119Z,622.10
2023-03-21T10:30:01.063Z,335.67
2023-03-21T10:34:16.539Z,500.67
2023-03-21T10:38:21.138Z,639.85
2023-03-21T10:42:25.686Z,301.08
2023-03-21T10:46:28.961Z,328.40
2023-03-21T10:50:33.267Z,372.33
2023-03-21T10:54:36.732Z,478.08
2023-03-21T10:58:43.284Z,110.75
2023-03-21T11:02:49.234Z,354.38
2023-03-21T11:06:55.185Z,392.40
2023-03-21T11:11:02.010Z,431.35
2023-03-21T11:15:27.206Z,408.77
2023-03-21T11:19:32.906Z,492.42
2023-03-21T11:23:40.957Z,292.67
2023-03-21T11:27:49.356Z,701.85
2023-03-21T11:31:52.247Z,468.92
2023-03-21T11:36:03.182Z,543.60
2023-03-21T11:40:21.136Z,586.13
2023-03-21T11:44:32.532Z,381.38
2023-03-21T11:48:40.833Z,303.67
2023-03-21T11:52:51.270Z,430.17
2023-03-21T11:56:58.107Z,290.60
2023-03-21T12:01:09.244Z,388.25
2023-03-21T12:05:20.096Z,425.33
2023-03-21T12:09:30.557Z,502.65
2023-03-21T12:13:44.989Z,534.30
2023-03-21T12:17:54.400Z,410.02
2023-03-21T12:22:05.660Z,602.10
2023-03-21T12:26:15.517Z,403.73
2023-03-21T12:30:30.169Z,362.95
2023-03-21T12:34:52.798Z,279.42
2023-03-21T12:39:03.277Z,488.38
2023-03-21T12:43:26.200Z,561.00
2023-03-21T12:47:32.672Z,483.73
2023-03-21T12:51:39.098Z,549.25
2023-03-21T12:55:42.253Z,635.53
2023-03-21T12:59:49.504Z,584.70
2023-03-21T13:04:06.881Z,352.83
2023-03-21T13:08:16.572Z,364.38
2023-03-21T13:12:29.781Z,509.38
2023-03-21T13:16:34.333Z,258.95
2023-03-21T13:20:44.712Z,438.15
2023-03-21T13:24:49.719Z,493.60
2023-03-21T13:28:53.306Z,395.38
2023-03-21T13:33:05.644Z,575.03
2023-03-21T13:37:16.549Z,486.70
2023-03-21T13:41:20.675Z,332.23
2023-03-21T13:45:29.878Z,693.13
2023-03-21T13:49:35.705Z,433.50
2023-03-21T13:53:40.377Z,764.85
2023-03-21T13:57:43.165Z,632.55
2023-03-21T14:02:00.101Z,469.88
2023-03-21T14:06:02.993Z,604.10
2023-03-21T14:10:15.006Z,405.80
2023-03-21T14:14:18.264Z,641.40
2023-03-21T14:18:41.206Z,573.30
2023-03-21T14:22:48.064Z,457.95
2023-03-21T14:26:54.040Z,408.95
2023-03-21T14:30:57.918Z,317.02
2023-03-21T14:35:02.325Z,469.50
2023-03-21T14:39:07.771Z,563.67
2023-03-21T14:43:13.429Z,629.35
2023-03-21T14:47:19.873Z,393.10
2023-03-21T14:51:30.803Z,615.20
2023-03-21T14:55:33.558Z,547.47
2023-03-21T14:59:38.856Z,684.13
2023-03-21T15:03:41.672Z,729.00
2023-03-21T15:07:44.348Z,716.92
2023-03-21T15:11:51.545Z,580.38
2023-03-21T15:15:56.034Z,567.05
2023-03-21T15:19:58.806Z,654.55
2023-03-21T15:24:04.904Z,837.83
2023-03-21T15:28:07.889Z,528.70
2023-03-21T15:32:17.498Z,437.73
2023-03-21T15:40:26.571Z,498.23
2023-03-21T15:44:29.831Z,497.42
2023-03-21T15:48:35.429Z,530.40
2023-03-21T15:52:38.673Z,646.22
2023-03-21T15:56:45.996Z,679.00
2023-03-21T16:00:54.399Z,301.30
2023-03-21T16:05:01.147Z,507.92
2023-03-21T16:09:10.362Z,481.55
2023-03-21T16:13:14.314Z,505.98
2023-03-21T16:17:29.688Z,681.17
2023-03-21T16:21:34.701Z,608.63
2023-03-21T16:25:37.440Z,539.50
2023-03-21T16:29:41.165Z,732.15
2023-03-21T16:33:44.312Z,532.83
2023-03-21T16:37:48.908Z,418.60
2023-03-21T16:41:51.629Z,399.70
2023-03-21T16:45:54.433Z,328.48
2023-03-21T16:49:57.305Z,311.13
2023-03-21T16:54:01.737Z,219.35
2023-03-21T16:58:05.081Z,456.58
2023-03-21T17:02:13.534Z,478.65
2023-03-21T17:06:18.351Z,434.13
2023-03-21T17:10:24.942Z,399.08
2023-03-21T17:14:27.656Z,279.48
2023-03-21T17:18:30.380Z,422.65
2023-03-21T17:22:33.504Z,788.72
2023-03-21T17:26:37.680Z,435.30
2023-03-21T17:30:40.955Z,459.30
2023-03-21T17:34:43.772Z,418.75
2023-03-21T17:38:46.843Z,512.38
2023-03-21T17:42:51.559Z,396.05
2023-03-21T17:46:54.246Z,674.90
2023-03-21T17:50:57.098Z,331.88
2023-03-21T17:55:00.116Z,480.10
2023-03-21T17:59:07.496Z,394.52
2023-03-21T18:03:10.192Z,404.15
2023-03-21T18:07:19.586Z,475.15
2023-03-21T18:11:27.287Z,369.58
2023-03-21T18:15:31.343Z,440.70
2023-03-21T18:19:34.560Z,465.67
2023-03-21T18:23:37.774Z,329.95
2023-03-21T18:28:02.084Z,405.77
2023-03-21T18:32:07.322Z,205.13
2023-03-21T18:36:14.030Z,244.98
2023-03-21T18:40:22.022Z,351.17
2023-03-21T18:44:25.691Z,241.55
2023-03-21T18:48:33.026Z,339.63
2023-03-21T18:52:37.004Z,313.05
2023-03-21T19:01:05.064Z,412.77
2023-03-21T19:05:10.130Z,284.55
2023-03-21T19:09:14.384Z,406.65
2023-03-21T19:13:17.315Z,276.02
2023-03-21T19:18:20.677Z,417.17
2023-03-21T19:21:44.432Z,276.35
2023-03-21T19:25:47.892Z,235.82
2023-03-21T19:30:06.824Z,298.45
2023-03-21T19:38:17.897Z,295.58
2023-03-21T19:42:20.964Z,267.50
2023-03-21T19:46:25.322Z,374.85
2023-03-21T19:51:20.531Z,281.85
2023-03-21T19:54:54.008Z,396.00
2023-03-21T19:58:57.030Z,420.95
2023-03-21T20:02:59.820Z,377.90
2023-03-21T20:07:02.521Z,567.70
2023-03-21T20:11:06.927Z,473.85
2023-03-21T20:15:17.588Z,19.70
2023-03-21T20:19:22.921Z,69.00
2023-03-21T20:23:25.664Z,57.13
2023-03-21T20:27:30.439Z,126.18
2023-03-21T20:31:33.573Z,100.07
2023-03-21T20:36:24.077Z,221.60
2023-03-21T20:39:59.014Z,63.70
2023-03-21T20:48:26.793Z,72.75
2023-03-21T20:56:53.195Z,72.20
2023-03-21T21:00:59.297Z,61.33
2023-03-21T21:05:24.599Z,88.03
2023-03-21T21:09:25.189Z,108.65
2023-03-21T21:13:27.926Z,13.05
2023-03-21T21:18:01.929Z,94.40
2023-03-21T21:21:56.512Z,103.22
2023-03-21T21:26:01.076Z,82.70
2023-03-21T21:30:04.087Z,62.45
2023-03-21T21:34:08.198Z,97.93
2023-03-21T21:38:11.611Z,97.40
2023-03-21T21:42:14.288Z,107.32
2023-03-21T21:46:17.492Z,81.53
2023-03-21T21:50:22.643Z,95.55
2023-03-21T21:54:26.182Z,69.20
2023-03-21T21:58:29.293Z,74.35
2023-03-21T22:02:32.049Z,14.98
2023-03-21T22:06:36.294Z,64.07
2023-03-21T22:10:39.256Z,130.52
2023-03-21T22:14:42.212Z,114.82
2023-03-21T22:18:44.945Z,294.27
2023-03-21T22:22:49.292Z,271.17
2023-03-21T22:26:57.761Z,329.00
2023-03-21T22:31:00.527Z,316.58
2023-03-21T22:35:03.373Z,360.23
2023-03-21T22:39:07.420Z,292.73
2023-03-21T22:43:10.192Z,301.55
2023-03-21T22:47:13.275Z,286.80
2023-03-21T22:51:15.954Z,321.13
2023-03-21T22:55:20.100Z,170.48
2023-03-21T22:59:22.819Z,387.25
2023-03-21T23:03:25.880Z,384.83
2023-03-21T23:07:28.537Z,289.58
2023-03-21T23:11:32.631Z,464.55
2023-03-21T23:15:35.637Z,333.10
2023-03-21T23:19:41.071Z,238.82
2023-03-21T23:23:50.086Z,226.27
2023-03-21T23:27:54.215Z,225.23
2023-03-21T23:31:56.953Z,187.25
2023-03-21T23:35:59.710Z,385.65
2023-03-21T23:40:02.558Z,345.58
2023-03-21T23:44:06.973Z,297.27
2023-03-21T23:48:09.749Z,258.88
2023-03-21T23:52:12.955Z,246.05
2023-03-21T23:56:17.422Z,372.23
